createdAt,value
2022-10-05T00:01:46.985Z,6.10
2022-10-05T00:04:25.756Z,6.22
2022-10-05T00:07:08.433Z,6.40
2022-10-05T00:09:35.417Z,5.65
2022-10-05T00:12:17.235Z,5.90
2022-10-05T00:14:45.411Z,5.25
2022-10-05T00:17:25.192Z,6.07
2022-10-05T00:19:53.929Z,5.85
2022-10-05T00:22:31.975Z,5.53
2022-10-05T00:25:01.758Z,5.43
2022-10-05T00:27:37.482Z,5.72
2022-10-05T00:30:25.808Z,5.20
2022-10-05T00:32:57.270Z,5.50
2022-10-05T00:35:25.791Z,4.80
2022-10-05T00:37:54.668Z,5.38
2022-10-05T00:40:40.393Z,5.50
2022-10-05T00:43:12.563Z,5.15
2022-10-05T00:45:48.947Z,5.22
2022-10-05T00:48:33.436Z,4.90
2022-10-05T00:51:19.395Z,5.75
2022-10-05T00:54:08.699Z,5.22
2022-10-05T00:57:05.996Z,5.18
2022-10-05T00:59:51.179Z,5.43
2022-10-05T01:02:39.398Z,5.93
2022-10-05T01:07:53.193Z,4.38
2022-10-05T01:10:36.383Z,5.78
2022-10-05T01:13:15.676Z,4.82
2022-10-05T01:15:47.899Z,5.90
2022-10-05T01:18:21.294Z,5.45
2022-10-05T01:21:03.391Z,5.82
2022-10-05T01:23:35.563Z,6.22
2022-10-05T01:26:38.199Z,5.78
2022-10-05T01:29:21.755Z,5.65
2022-10-05T01:32:11.834Z,6.57
2022-10-05T01:34:43.074Z,5.85
2022-10-05T01:37:12.425Z,5.35
2022-10-05T01:39:53.818Z,5.80
2022-10-05T01:42:45.102Z,5.95
2022-10-05T01:45:21.728Z,6.47
2022-10-05T01:47:52.674Z,5.75
2022-10-05T01:50:27.278Z,5.45
2022-10-05T01:53:04.761Z,6.88
2022-10-05T01:55:55.248Z,6.13
2022-10-05T01:58:49.463Z,5.20
2022-10-05T02:01:33.707Z,6.25
2022-10-05T02:04:10.335Z,5.72
2022-10-05T02:06:41.279Z,5.63
2022-10-05T02:09:15.550Z,6.53
2022-10-05T02:11:46.846Z,6.10
2022-10-05T02:14:20.173Z,6.05
2022-10-05T02:16:49.569Z,5.82
2022-10-05T02:19:24.323Z,5.78
2022-10-05T02:21:55.471Z,5.82
2022-10-05T02:26:53.206Z,6.20
2022-10-05T02:29:23.835Z,6.00
2022-10-05T02:32:00.093Z,6.20
2022-10-05T02:34:35.826Z,6.00
2022-10-05T02:37:09.615Z,5.93
2022-10-05T02:40:00.570Z,6.00
2022-10-05T02:42:38.984Z,5.40
2022-10-05T02:45:23.326Z,5.95
2022-10-05T02:48:15.956Z,6.35
2022-10-05T02:50:56.823Z,6.10
2022-10-05T02:53:45.811Z,5.78
2022-10-05T02:56:12.116Z,5.70
2022-10-05T02:58:59.863Z,5.45
2022-10-05T03:01:35.602Z,5.20
2022-10-05T03:04:06.946Z,5.63
2022-10-05T03:09:09.334Z,5.82
2022-10-05T03:11:43.678Z,5.95
2022-10-05T03:14:18.280Z,5.55
2022-10-05T03:17:03.269Z,7.22
2022-10-05T03:19:46.969Z,7.63
2022-10-05T03:22:26.276Z,4.53
2022-10-05T03:25:07.958Z,5.30
2022-10-05T03:28:12.332Z,8.00
2022-10-05T03:30:44.464Z,6.68
2022-10-05T03:33:36.634Z,7.22
2022-10-05T03:36:12.109Z,5.93
2022-10-05T03:38:48.730Z,5.72
2022-10-05T03:41:24.531Z,11.55
2022-10-05T03:43:56.775Z,5.78
2022-10-05T03:46:44.951Z,6.82
2022-10-05T03:49:59.856Z,6.70
2022-10-05T03:52:35.084Z,7.15
2022-10-05T03:55:26.257Z,5.50
2022-10-05T03:57:56.316Z,8.73
2022-10-05T04:00:23.537Z,7.32
2022-10-05T04:03:00.686Z,7.63
2022-10-05T04:05:41.226Z,6.68
2022-10-05T04:08:20.798Z,8.30
2022-10-05T04:10:50.826Z,6.60
2022-10-05T04:13:39.959Z,6.82
2022-10-05T04:16:15.951Z,6.20
2022-10-05T04:18:50.259Z,5.88
2022-10-05T04:21:25.925Z,4.38
2022-10-05T04:24:04.298Z,4.68
2022-10-05T04:26:43.550Z,5.32
2022-10-05T04:29:29.773Z,5.82
2022-10-05T04:32:08.030Z,5.63
2022-10-05T04:35:15.826Z,5.72
2022-10-05T04:38:13.005Z,5.50
2022-10-05T04:41:14.307Z,5.15
2022-10-05T04:43:49.451Z,5.22
2022-10-05T04:46:34.321Z,4.80
2022-10-05T04:49:11.941Z,5.35
2022-10-05T04:52:01.901Z,5.70
2022-10-05T04:54:58.765Z,5.45
2022-10-05T04:57:50.487Z,5.63
2022-10-05T05:00:25.347Z,5.43
2022-10-05T05:03:12.087Z,5.75
2022-10-05T05:06:16.893Z,5.15
2022-10-05T05:09:09.063Z,4.78
2022-10-05T05:12:19.667Z,5.20
2022-10-05T05:15:17.947Z,6.03
2022-10-05T05:17:53.177Z,4.95
2022-10-05T05:20:41.423Z,4.88
2022-10-05T05:23:14.706Z,5.32
2022-10-05T05:26:05.419Z,5.75
2022-10-05T05:28:54.496Z,5.40
2022-10-05T05:31:48.485Z,5.35
2022-10-05T05:38:04.882Z,4.97
2022-10-05T05:40:39.498Z,5.35
2022-10-05T05:43:18.631Z,5.93
2022-10-05T05:45:59.639Z,6.57
2022-10-05T05:48:36.746Z,5.95
2022-10-05T05:51:12.059Z,5.57
2022-10-05T05:53:44.241Z,6.25
2022-10-05T05:56:14.861Z,5.70
2022-10-05T05:58:52.655Z,6.57
2022-10-05T06:01:34.081Z,6.45
2022-10-05T06:04:09.531Z,6.43
2022-10-05T06:06:40.991Z,6.43
2022-10-05T06:09:19.872Z,6.78
2022-10-05T06:11:56.224Z,6.70
2022-10-05T06:14:29.554Z,6.10
2022-10-05T06:17:05.283Z,6.15
2022-10-05T06:19:34.578Z,6.30
2022-10-05T06:22:16.372Z,5.85
2022-10-05T06:25:16.480Z,5.65
2022-10-05T06:28:02.538Z,5.95
2022-10-05T06:30:43.171Z,5.40
2022-10-05T06:33:21.228Z,5.28
2022-10-05T06:36:14.888Z,5.13
2022-10-05T06:38:51.231Z,5.22
2022-10-05T06:41:36.225Z,5.30
2022-10-05T06:44:42.591Z,5.05
2022-10-05T06:47:44.744Z,4.47
2022-10-05T06:50:27.845Z,4.40
2022-10-05T06:53:07.196Z,4.60
2022-10-05T06:55:55.973Z,4.07
2022-10-05T06:58:43.866Z,4.57
2022-10-05T07:01:35.975Z,4.68
2022-10-05T07:04:28.258Z,3.70
2022-10-05T07:06:59.868Z,4.20
2022-10-05T07:09:28.840Z,4.65
2022-10-05T07:12:24.574Z,4.57
2022-10-05T07:15:04.214Z,4.20
2022-10-05T07:17:49.178Z,4.38
2022-10-05T07:20:29.017Z,4.60
2022-10-05T07:23:03.137Z,4.82
2022-10-05T07:25:38.185Z,4.82
2022-10-05T07:28:17.367Z,5.35
2022-10-05T07:31:03.798Z,4.70
2022-10-05T07:33:33.202Z,4.28
2022-10-05T07:36:36.971Z,4.72
2022-10-05T07:39:18.493Z,4.53
2022-10-05T07:41:52.472Z,4.18
2022-10-05T07:44:31.287Z,4.32
2022-10-05T07:47:11.876Z,4.38
2022-10-05T07:49:51.903Z,4.45
2022-10-05T07:52:36.427Z,4.45
2022-10-05T07:55:11.925Z,4.88
2022-10-05T07:58:05.962Z,4.50
2022-10-05T08:00:54.430Z,4.53
2022-10-05T08:03:34.948Z,4.25
2022-10-05T08:06:03.765Z,4.55
2022-10-05T08:08:44.302Z,4.50
2022-10-05T08:11:18.883Z,4.30
2022-10-05T08:13:54.489Z,4.22
2022-10-05T08:16:25.254Z,4.22
2022-10-05T08:19:06.615Z,4.38
2022-10-05T08:21:43.982Z,4.70
2022-10-05T08:24:13.237Z,4.07
2022-10-05T08:27:01.724Z,4.40
2022-10-05T08:29:51.877Z,4.72
2022-10-05T08:32:33.794Z,4.47
2022-10-05T08:35:40.779Z,4.90
2022-10-05T08:38:16.763Z,4.10
2022-10-05T08:41:01.837Z,4.38
2022-10-05T08:44:01.305Z,4.65
2022-10-05T08:49:16.935Z,4.82
2022-10-05T08:52:10.943Z,4.57
2022-10-05T08:54:46.898Z,4.65
2022-10-05T08:57:47.506Z,4.28
2022-10-05T09:00:16.918Z,4.28
2022-10-05T09:03:11.463Z,4.50
2022-10-05T09:05:59.739Z,4.32
2022-10-05T09:08:47.965Z,4.38
2022-10-05T09:11:37.344Z,4.47
2022-10-05T09:14:18.678Z,4.00
2022-10-05T09:16:57.095Z,4.10
2022-10-05T09:19:42.608Z,3.95
2022-10-05T09:22:39.776Z,3.72
2022-10-05T09:25:27.266Z,3.60
2022-10-05T09:28:02.974Z,3.55
2022-10-05T09:31:06.734Z,3.58
2022-10-05T09:34:10.907Z,3.75
2022-10-05T09:36:59.356Z,3.40
2022-10-05T09:40:08.462Z,3.50
2022-10-05T09:42:44.885Z,3.40
2022-10-05T09:45:11.143Z,4.00
2022-10-05T09:47:52.735Z,3.38
2022-10-05T09:50:34.156Z,3.83
2022-10-05T09:53:04.844Z,3.38
2022-10-05T09:55:46.322Z,3.50
2022-10-05T09:58:15.625Z,3.60
2022-10-05T10:01:09.211Z,3.38
2022-10-05T10:04:10.024Z,3.00
2022-10-05T10:06:56.511Z,3.10
2022-10-05T10:09:55.823Z,3.40
2022-10-05T10:12:32.987Z,3.60
2022-10-05T10:15:48.316Z,3.10
2022-10-05T10:18:50.187Z,2.80
2022-10-05T10:21:23.580Z,2.90
2022-10-05T10:24:08.038Z,2.78
2022-10-05T10:26:47.571Z,2.70
2022-10-05T10:29:32.734Z,2.78
2022-10-05T10:32:36.634Z,2.92
2022-10-05T10:35:21.937Z,2.75
2022-10-05T10:38:06.656Z,2.70
2022-10-05T10:40:53.232Z,2.33
2022-10-05T10:43:44.563Z,2.58
2022-10-05T10:46:26.081Z,2.58
2022-10-05T10:49:10.999Z,2.70
2022-10-05T10:51:56.405Z,2.33
2022-10-05T10:54:40.787Z,1.92
2022-10-05T10:57:11.763Z,1.92
2022-10-05T11:00:19.100Z,2.05
2022-10-05T11:02:51.256Z,1.88
2022-10-05T11:05:48.889Z,2.22
2022-10-05T11:08:46.296Z,2.00
2022-10-05T11:11:51.262Z,2.03
2022-10-05T11:14:36.172Z,1.83
2022-10-05T11:17:23.183Z,2.05
2022-10-05T11:20:12.724Z,1.80
2022-10-05T11:22:58.979Z,1.85
2022-10-05T11:25:53.053Z,1.80
2022-10-05T11:28:58.582Z,2.03
2022-10-05T11:31:38.897Z,2.00
2022-10-05T11:34:37.575Z,1.88
2022-10-05T11:37:31.852Z,2.17
2022-10-05T11:40:22.358Z,2.13
2022-10-05T11:43:22.308Z,2.70
2022-10-05T11:46:07.456Z,2.03
2022-10-05T11:48:45.207Z,1.80
2022-10-05T11:51:11.997Z,1.92
2022-10-05T11:54:03.255Z,1.85
2022-10-05T11:56:41.753Z,2.10
2022-10-05T11:59:27.017Z,2.13
2022-10-05T12:02:18.255Z,2.40
2022-10-05T12:05:12.818Z,2.00
2022-10-05T12:07:57.950Z,1.75
2022-10-05T12:10:40.640Z,1.60
2022-10-05T12:13:31.096Z,1.83
2022-10-05T12:16:05.337Z,1.50
2022-10-05T12:18:31.658Z,2.13
2022-10-05T12:21:04.513Z,1.90
2022-10-05T12:23:40.072Z,2.10
2022-10-05T12:26:15.211Z,1.65
2022-10-05T12:28:47.468Z,2.03
2022-10-05T12:31:23.022Z,2.05
2022-10-05T12:34:11.220Z,2.10
2022-10-05T12:37:03.465Z,1.90
2022-10-05T12:42:42.044Z,1.80
2022-10-05T12:45:26.941Z,1.85
2022-10-05T12:48:05.770Z,2.03
2022-10-05T12:50:40.776Z,2.05
2022-10-05T12:53:22.329Z,1.88
2022-10-05T12:56:23.799Z,1.77
2022-10-05T12:59:19.430Z,1.75
2022-10-05T13:02:16.204Z,1.90
2022-10-05T13:05:12.207Z,1.85
2022-10-05T13:07:59.970Z,1.65
2022-10-05T13:10:35.474Z,1.95
2022-10-05T13:13:04.824Z,1.42
2022-10-05T13:15:41.355Z,2.17
2022-10-05T13:21:06.807Z,1.98
2022-10-05T13:23:56.480Z,1.77
2022-10-05T13:26:32.004Z,1.63
2022-10-05T13:29:01.302Z,1.55
2022-10-05T13:31:44.492Z,2.08
2022-10-05T13:34:26.458Z,2.42
2022-10-05T13:37:19.044Z,2.35
2022-10-05T13:39:51.343Z,2.53
2022-10-05T13:42:28.729Z,2.42
2022-10-05T13:45:35.502Z,2.60
2022-10-05T13:48:16.339Z,2.35
2022-10-05T13:50:59.517Z,2.13
2022-10-05T13:53:43.917Z,2.55
2022-10-05T13:56:28.716Z,2.50
2022-10-05T13:59:12.022Z,2.75
2022-10-05T14:01:49.298Z,2.55
2022-10-05T14:04:27.236Z,2.45
2022-10-05T14:06:53.839Z,2.35
2022-10-05T14:09:20.119Z,2.30
2022-10-05T14:11:58.804Z,2.70
2022-10-05T14:14:28.222Z,2.78
2022-10-05T14:16:57.106Z,3.05
2022-10-05T14:19:23.540Z,2.72
2022-10-05T14:21:52.708Z,2.95
2022-10-05T14:24:49.437Z,2.65
2022-10-05T14:27:30.780Z,3.05
2022-10-05T14:30:23.666Z,2.92
2022-10-05T14:33:08.067Z,2.78
2022-10-05T14:35:51.055Z,2.40
2022-10-05T14:38:49.831Z,2.25
2022-10-05T14:41:19.760Z,2.22
2022-10-05T14:44:06.708Z,2.30
2022-10-05T14:46:35.690Z,2.53
2022-10-05T14:49:26.115Z,2.65
2022-10-05T14:51:53.753Z,2.85
2022-10-05T14:54:43.220Z,2.53
2022-10-05T14:57:34.192Z,2.60
2022-10-05T15:00:12.031Z,2.75
2022-10-05T15:03:05.276Z,2.53
2022-10-05T15:05:39.391Z,2.65
2022-10-05T15:08:44.771Z,2.70
2022-10-05T15:11:22.175Z,3.25
2022-10-05T15:13:49.325Z,2.63
2022-10-05T15:16:26.284Z,2.80
2022-10-05T15:19:26.368Z,2.40
2022-10-05T15:22:11.498Z,2.85
2022-10-05T15:24:51.639Z,2.97
2022-10-05T15:27:27.667Z,2.88
2022-10-05T15:30:12.457Z,2.88
2022-10-05T15:32:44.940Z,2.88
2022-10-05T15:35:30.720Z,3.08
2022-10-05T15:38:02.748Z,3.38
2022-10-05T15:41:17.120Z,3.30
2022-10-05T15:43:52.318Z,3.35
2022-10-05T15:46:40.457Z,2.88
2022-10-05T15:49:48.322Z,3.38
2022-10-05T15:52:29.894Z,2.97
2022-10-05T15:55:05.073Z,3.00
2022-10-05T15:58:04.718Z,3.53
2022-10-05T16:00:38.487Z,3.45
2022-10-05T16:03:52.921Z,4.35
2022-10-05T16:07:14.929Z,3.20
2022-10-05T16:10:03.354Z,3.45
2022-10-05T16:12:32.660Z,3.70
2022-10-05T16:15:17.610Z,3.50
2022-10-05T16:18:03.183Z,3.67
2022-10-05T16:21:04.748Z,3.22
2022-10-05T16:23:59.010Z,3.70
2022-10-05T16:26:54.275Z,3.30
2022-10-05T16:29:36.352Z,3.58
2022-10-05T16:32:09.926Z,3.50
2022-10-05T16:35:16.477Z,3.85
2022-10-05T16:38:05.511Z,3.85
2022-10-05T16:40:51.264Z,3.38
2022-10-05T16:43:38.932Z,4.50
2022-10-05T16:46:28.159Z,3.42
2022-10-05T16:49:20.606Z,4.10
2022-10-05T16:51:53.423Z,4.07
2022-10-05T16:54:48.314Z,3.70
2022-10-05T16:57:27.173Z,3.47
2022-10-05T17:00:18.418Z,3.35
2022-10-05T17:03:08.595Z,3.83
2022-10-05T17:05:45.069Z,3.35
2022-10-05T17:08:41.083Z,3.70
2022-10-05T17:11:22.064Z,3.65
2022-10-05T17:14:15.912Z,4.22
2022-10-05T17:16:59.039Z,3.80
2022-10-05T17:19:44.568Z,4.28
2022-10-05T17:22:17.087Z,3.92
2022-10-05T17:25:04.567Z,4.07
2022-10-05T17:27:53.601Z,3.47
2022-10-05T17:30:20.005Z,3.67
2022-10-05T17:32:55.741Z,3.88
2022-10-05T17:35:42.862Z,3.90
2022-10-05T17:38:18.104Z,3.78
2022-10-05T17:41:16.011Z,3.35
2022-10-05T17:44:13.401Z,4.10
2022-10-05T17:46:48.238Z,4.15
2022-10-05T17:49:40.360Z,3.67
2022-10-05T17:52:44.556Z,4.25
2022-10-05T17:55:34.145Z,4.40
2022-10-05T17:58:23.394Z,4.15
2022-10-05T18:00:58.885Z,6.80
2022-10-05T18:03:49.093Z,7.75
2022-10-05T18:06:29.416Z,15.65
2022-10-05T18:09:16.704Z,7.50
2022-10-05T18:11:45.063Z,4.10
2022-10-05T18:14:24.677Z,5.05
2022-10-05T18:17:12.851Z,4.15
2022-10-05T18:22:15.438Z,4.50
2022-10-05T18:24:55.954Z,5.30
2022-10-05T18:27:40.909Z,4.57
2022-10-05T18:30:22.931Z,4.22
2022-10-05T18:33:19.557Z,4.38
2022-10-05T18:36:01.077Z,4.63
2022-10-05T18:38:27.868Z,4.70
2022-10-05T18:41:18.587Z,4.97
2022-10-05T18:43:57.504Z,4.30
2022-10-05T18:46:47.726Z,4.32
2022-10-05T18:49:21.223Z,4.40
2022-10-05T18:52:04.818Z,4.00
2022-10-05T18:54:54.718Z,4.00
2022-10-05T18:57:36.731Z,4.20
2022-10-05T19:00:17.563Z,4.38
2022-10-05T19:03:06.772Z,6.80
2022-10-05T19:05:48.041Z,5.68
2022-10-05T19:08:45.925Z,3.70
2022-10-05T19:11:32.984Z,4.93
2022-10-05T19:14:13.853Z,6.75
2022-10-05T19:17:04.761Z,4.65
2022-10-05T19:19:55.979Z,4.05
2022-10-05T19:22:53.516Z,3.67
2022-10-05T19:25:43.160Z,4.07
2022-10-05T19:28:33.056Z,4.03
2022-10-05T19:31:06.873Z,4.32
2022-10-05T19:33:49.496Z,3.85
2022-10-05T19:36:43.814Z,4.65
2022-10-05T19:39:21.135Z,4.03
2022-10-05T19:42:19.476Z,4.38
2022-10-05T19:45:15.874Z,4.90
2022-10-05T19:48:00.032Z,4.95
2022-10-05T19:50:33.539Z,4.03
2022-10-05T19:53:45.671Z,4.45
2022-10-05T19:56:21.117Z,4.10
2022-10-05T19:58:49.851Z,4.63
2022-10-05T20:01:36.770Z,4.60
2022-10-05T20:04:04.978Z,4.88
2022-10-05T20:06:31.378Z,5.05
2022-10-05T20:09:00.275Z,5.07
2022-10-05T20:11:28.475Z,4.68
2022-10-05T20:13:55.021Z,4.55
2022-10-05T20:16:50.301Z,5.97
2022-10-05T20:19:35.602Z,5.15
2022-10-05T20:22:26.152Z,4.85
2022-10-05T20:24:55.136Z,4.50
2022-10-05T20:27:39.705Z,4.75
2022-10-05T20:30:07.562Z,4.57
2022-10-05T20:32:33.984Z,5.20
2022-10-05T20:35:00.391Z,4.65
2022-10-05T20:37:26.835Z,4.97
2022-10-05T20:39:53.266Z,5.20
2022-10-05T20:42:21.003Z,4.60
2022-10-05T20:44:50.772Z,4.50
2022-10-05T20:47:19.455Z,4.82
2022-10-05T20:49:45.885Z,4.95
2022-10-05T20:52:14.932Z,4.90
2022-10-05T20:54:42.140Z,4.93
2022-10-05T20:57:09.303Z,5.20
2022-10-05T20:59:37.196Z,5.20
2022-10-05T21:02:04.771Z,4.40
2022-10-05T21:04:40.379Z,5.25
2022-10-05T21:07:08.149Z,5.07
2022-10-05T21:09:34.619Z,4.57
2022-10-05T21:12:01.050Z,5.05
2022-10-05T21:14:30.490Z,5.20
2022-10-05T21:16:57.895Z,4.78
2022-10-05T21:19:24.241Z,5.68
2022-10-05T21:21:50.812Z,4.97
2022-10-05T21:24:17.416Z,5.43
2022-10-05T21:26:44.854Z,4.72
2022-10-05T21:29:13.108Z,5.63
2022-10-05T21:31:39.907Z,5.60
2022-10-05T21:34:06.348Z,5.78
2022-10-05T21:36:33.124Z,5.43
2022-10-05T21:38:59.754Z,5.72
2022-10-05T21:41:26.662Z,5.35
2022-10-05T21:43:53.199Z,5.55
2022-10-05T21:46:22.771Z,6.20
2022-10-05T21:48:49.792Z,5.03
2022-10-05T21:51:18.880Z,5.32
2022-10-05T21:53:55.996Z,5.30
2022-10-05T21:56:29.775Z,4.85
2022-10-05T21:58:56.384Z,4.90
2022-10-05T22:01:23.220Z,5.70
2022-10-05T22:03:49.878Z,6.03
2022-10-05T22:06:16.312Z,5.05
2022-10-05T22:08:42.812Z,5.70
2022-10-05T22:11:15.211Z,5.60
2022-10-05T22:13:47.466Z,5.50
2022-10-05T22:16:15.669Z,5.28
2022-10-05T22:18:42.624Z,5.65
2022-10-05T22:21:13.970Z,5.90
2022-10-05T22:23:41.812Z,5.57
2022-10-05T22:26:12.823Z,5.15
2022-10-05T22:31:07.888Z,5.70
2022-10-05T22:33:34.332Z,6.00
2022-10-05T22:36:01.286Z,6.20
2022-10-05T22:38:30.775Z,6.55
2022-10-05T22:40:58.552Z,6.90
2022-10-05T22:43:26.931Z,6.30
2022-10-05T22:45:54.066Z,6.90
2022-10-05T22:48:20.471Z,6.75
2022-10-05T22:50:47.551Z,7.32
2022-10-05T22:53:14.233Z,6.45
2022-10-05T22:55:40.880Z,6.05
2022-10-05T22:58:07.308Z,6.10
2022-10-05T23:00:56.462Z,6.13
2022-10-05T23:03:20.182Z,6.13
2022-10-05T23:05:46.496Z,5.95
2022-10-05T23:08:12.931Z,6.43
2022-10-05T23:10:39.354Z,5.95
2022-10-05T23:13:11.882Z,5.75
2022-10-05T23:15:38.319Z,6.43
2022-10-05T23:18:04.732Z,6.15
2022-10-05T23:20:31.155Z,5.78
2022-10-05T23:22:59.404Z,6.15
2022-10-05T23:25:25.901Z,6.20
2022-10-05T23:27:52.293Z,5.93
2022-10-05T23:30:18.768Z,6.05
2022-10-05T23:32:45.109Z,6.90
2022-10-05T23:35:13.072Z,6.15
2022-10-05T23:37:40.842Z,6.00
2022-10-05T23:40:09.843Z,6.47
2022-10-05T23:42:37.359Z,5.60
2022-10-05T23:45:05.071Z,5.90
2022-10-05T23:47:31.426Z,6.03
2022-10-05T23:49:58.887Z,5.50
2022-10-05T23:52:26.342Z,5.88
2022-10-05T23:54:52.729Z,6.53
2022-10-05T23:57:19.724Z,5.70
2022-10-05T23:59:46.242Z,5.78
